Time,TemperatureF,DewpointF,PressureIn,WindDirection,WindDirectionDegrees,WindSpeedMPH,WindSpeedGustMPH,Humidity,HourlyPrecipIn,Conditions,Clouds,dailyrainin,SoftwareType,DateUTC
2013-04-13 00:11:00,62.4,36.0,29.62,ESE,107,13.0,25.0,37,0.00,,,0.00,weatherlink.com 1.10,2013-04-13 05:11:00,
2013-04-13 00:26:00,61.9,36.0,29.62,SE,126,13.0,26.0,38,0.00,,,0.00,weatherlink.com 1.10,2013-04-13 05:26:00,
2013-04-13 00:56:00,61.0,36.0,29.63,SE,128,4.0,12.0,40,0.00,,,0.00,weatherlink.com 1.10,2013-04-13 05:56:00,
2013-04-13 01:11:00,60.8,36.0,29.63,ESE,123,10.0,13.0,40,0.00,,,0.00,weatherlink.com 1.10,2013-04-13 06:11:00,
2013-04-13 01:26:00,60.7,36.0,29.63,ESE,123,7.0,14.0,40,0.00,,,0.00,weatherlink.com 1.10,2013-04-13 06:26:00,
2013-04-13 01:41:00,60.5,36.0,29.62,ESE,123,10.0,15.0,41,0.00,,,0.00,weatherlink.com 1.10,2013-04-13 06:41:00,
2013-04-13 01:56:00,60.4,36.0,29.62,SE,132,6.0,12.0,41,0.00,,,0.00,weatherlink.com 1.10,2013-04-13 06:56:00,
2013-04-13 02:11:00,60.2,37.0,29.62,SE,130,5.0,12.0,42,0.00,,,0.00,weatherlink.com 1.10,2013-04-13 07:11:00,
2013-04-13 02:56:00,59.3,37.0,29.61,SE,135,0.0,12.0,44,0.00,,,0.00,weatherlink.com 1.10,2013-04-13 07:56:00,
2013-04-13 03:27:00,58.5,38.0,29.59,SE,135,2.0,6.0,46,0.00,,,0.00,weatherlink.com 1.10,2013-04-13 08:27:00,
2013-04-13 03:42:00,58.6,38.0,29.59,SE,135,0.0,6.0,46,0.00,,,0.00,weatherlink.com 1.10,2013-04-13 08:42:00,
2013-04-13 03:57:00,58.2,38.0,29.59,SE,135,2.0,6.0,47,0.00,,,0.00,weatherlink.com 1.10,2013-04-13 08:57:00,
2013-04-13 04:27:00,57.3,39.0,29.58,SE,135,0.0,5.0,50,0.00,,,0.00,weatherlink.com 1.10,2013-04-13 09:27:00,
2013-04-13 04:57:00,57.2,39.0,29.58,SE,131,4.0,11.0,51,0.00,,,0.00,weatherlink.com 1.10,2013-04-13 09:57:00,
2013-04-13 05:27:00,56.2,40.0,29.58,SE,130,3.0,6.0,54,0.00,,,0.00,weatherlink.com 1.10,2013-04-13 10:27:00,
2013-04-13 05:42:00,55.5,40.0,29.58,SE,130,0.0,4.0,56,0.00,,,0.00,weatherlink.com 1.10,2013-04-13 10:42:00,
2013-04-13 05:57:00,56.4,41.0,29.58,SE,130,3.0,6.0,57,0.00,,,0.00,weatherlink.com 1.10,2013-04-13 10:57:00,
2013-04-13 06:12:00,55.9,41.0,29.58,SE,130,0.0,2.0,58,0.00,,,0.00,weatherlink.com 1.10,2013-04-13 11:12:00,
2013-04-13 06:27:00,53.5,40.0,29.58,SE,130,0.0,1.0,60,0.00,,,0.00,weatherlink.com 1.10,2013-04-13 11:27:00,
2013-04-13 06:42:00,54.0,42.0,29.58,SE,130,1.0,1.0,63,0.00,,,0.00,weatherlink.com 1.10,2013-04-13 11:42:00,
2013-04-13 07:12:00,54.5,42.0,29.58,SE,130,0.0,1.0,63,0.00,,,0.00,weatherlink.com 1.10,2013-04-13 12:12:00,
2013-04-13 07:27:00,55.0,42.0,29.59,SE,130,0.0,2.0,63,0.00,,,0.00,weatherlink.com 1.10,2013-04-13 12:27:00,
2013-04-13 07:57:00,55.5,44.0,29.59,SE,130,6.0,9.0,65,0.00,,,0.00,weatherlink.com 1.10,2013-04-13 12:57:00,
2013-04-13 08:27:00,56.9,43.0,29.60,SE,130,0.0,4.0,61,0.00,,,0.00,weatherlink.com 1.10,2013-04-13 13:27:00,
2013-04-13 08:42:00,56.7,42.0,29.60,SE,130,0.0,2.0,59,0.00,,,0.00,weatherlink.com 1.10,2013-04-13 13:42:00,
2013-04-13 08:57:00,57.1,43.0,29.60,SE,130,0.0,0.0,59,0.00,,,0.00,weatherlink.com 1.10,2013-04-13 13:57:00,
2013-04-13 09:12:00,58.1,45.0,29.60,SE,130,0.0,2.0,61,0.00,,,0.00,weatherlink.com 1.10,2013-04-13 14:12:00,
2013-04-13 09:27:00,59.6,45.0,29.61,SE,130,1.0,2.0,59,0.00,,,0.00,weatherlink.com 1.10,2013-04-13 14:27:00,
2013-04-13 09:42:00,60.2,45.0,29.61,SE,130,2.0,2.0,58,0.00,,,0.00,weatherlink.com 1.10,2013-04-13 14:42:00,
2013-04-13 09:57:00,60.7,45.0,29.61,SE,130,0.0,5.0,56,0.00,,,0.00,weatherlink.com 1.10,2013-04-13 14:57:00,
2013-04-13 10:12:00,61.1,45.0,29.61,SE,130,0.0,7.0,55,0.00,,,0.00,weatherlink.com 1.10,2013-04-13 15:12:00,
2013-04-13 10:28:00,61.2,44.0,29.61,SE,130,4.0,4.0,54,0.00,,,0.00,weatherlink.com 1.10,2013-04-13 15:28:00,
2013-04-13 10:42:00,62.9,45.0,29.61,SE,130,4.0,6.0,52,0.00,,,0.00,weatherlink.com 1.10,2013-04-13 15:42:00,
2013-04-13 10:58:00,66.0,46.0,29.60,SE,130,2.0,6.0,48,0.00,,,0.00,weatherlink.com 1.10,2013-04-13 15:58:00,
2013-04-13 11:13:00,64.7,44.0,29.60,SE,130,0.0,2.0,48,0.00,,,0.00,weatherlink.com 1.10,2013-04-13 16:13:00,
2013-04-13 12:28:00,69.8,46.0,29.59,SE,130,2.0,6.0,42,0.00,,,0.00,weatherlink.com 1.10,2013-04-13 17:28:00,
2013-04-13 13:28:00,74.0,45.0,29.57,SW,217,2.0,8.0,36,0.00,,,0.00,weatherlink.com 1.10,2013-04-13 18:28:00,
2013-04-13 13:43:00,74.0,46.0,29.56,West,275,3.0,8.0,37,0.00,,,0.00,weatherlink.com 1.10,2013-04-13 18:43:00,
2013-04-13 13:58:00,73.9,46.0,29.56,West,274,1.0,5.0,37,0.00,,,0.00,weatherlink.com 1.10,2013-04-13 18:58:00,
2013-04-13 14:13:00,74.7,45.0,29.55,West,261,1.0,7.0,35,0.00,,,0.00,weatherlink.com 1.10,2013-04-13 19:13:00,
2013-04-13 14:28:00,72.1,44.0,29.54,West,261,0.0,5.0,36,0.00,,,0.00,weatherlink.com 1.10,2013-04-13 19:28:00,
2013-04-13 14:43:00,70.8,44.0,29.53,West,261,0.0,5.0,38,0.00,,,0.00,weatherlink.com 1.10,2013-04-13 19:43:00,
2013-04-13 14:58:00,69.7,44.0,29.53,NNW,345,4.0,8.0,39,0.00,,,0.00,weatherlink.com 1.10,2013-04-13 19:58:00,
2013-04-13 15:13:00,66.4,50.0,29.54,NW,310,7.0,10.0,55,0.01,,,0.01,weatherlink.com 1.10,2013-04-13 20:13:00,
2013-04-13 15:28:00,60.3,50.0,29.55,NW,318,1.0,6.0,69,0.17,,,0.17,weatherlink.com 1.10,2013-04-13 20:28:00,
2013-04-13 15:43:00,58.6,44.0,29.55,NW,319,0.0,7.0,58,0.29,,,0.29,weatherlink.com 1.10,2013-04-13 20:43:00,
2013-04-13 15:58:00,56.6,47.0,29.57,NW,320,1.0,3.0,71,0.39,,,0.39,weatherlink.com 1.10,2013-04-13 20:58:00,
2013-04-13 16:13:00,57.7,45.0,29.58,NW,321,8.0,14.0,63,0.40,,,0.41,weatherlink.com 1.10,2013-04-13 21:13:00,
2013-04-13 16:28:00,58.6,39.0,29.59,NW,313,4.0,27.0,48,0.24,,,0.42,weatherlink.com 1.10,2013-04-13 21:28:00,
2013-04-13 16:43:00,60.3,39.0,29.60,East,91,5.0,15.0,45,0.12,,,0.42,weatherlink.com 1.10,2013-04-13 21:43:00,
2013-04-13 16:58:00,59.8,42.0,29.60,ESE,109,4.0,8.0,53,0.02,,,0.42,weatherlink.com 1.10,2013-04-13 21:58:00,
2013-04-13 17:13:00,60.8,41.0,29.58,ESE,113,4.0,15.0,48,0.01,,,0.42,weatherlink.com 1.10,2013-04-13 22:13:00,
2013-04-13 17:28:00,60.4,41.0,29.58,ESE,107,10.0,15.0,50,0.00,,,0.42,weatherlink.com 1.10,2013-04-13 22:28:00,
2013-04-13 17:43:00,60.4,41.0,29.58,ESE,119,11.0,11.0,49,0.00,,,0.42,weatherlink.com 1.10,2013-04-13 22:43:00,
2013-04-13 17:58:00,61.3,41.0,29.59,SE,133,0.0,16.0,47,0.00,,,0.42,weatherlink.com 1.10,2013-04-13 22:58:00,
2013-04-13 18:13:00,60.8,41.0,29.58,ESE,118,2.0,7.0,48,0.00,,,0.42,weatherlink.com 1.10,2013-04-13 23:13:00,
2013-04-13 18:28:00,61.4,41.0,29.60,South,174,2.0,7.0,48,0.00,,,0.42,weatherlink.com 1.10,2013-04-13 23:28:00,
2013-04-13 18:43:00,62.6,40.0,29.60,WSW,245,4.0,9.0,44,0.00,,,0.42,weatherlink.com 1.10,2013-04-13 23:43:00,
2013-04-13 18:58:00,61.7,41.0,29.59,ESE,114,3.0,12.0,46,0.00,,,0.42,weatherlink.com 1.10,2013-04-13 23:58:00,
2013-04-13 19:13:00,61.7,41.0,29.58,ESE,107,1.0,11.0,46,0.00,,,0.42,weatherlink.com 1.10,2013-04-14 00:13:00,
2013-04-13 19:28:00,62.5,40.0,29.58,SSW,203,5.0,7.0,44,0.00,,,0.42,weatherlink.com 1.10,2013-04-14 00:28:00,
2013-04-13 19:43:00,62.2,40.0,29.58,WSW,254,4.0,11.0,45,0.00,,,0.42,weatherlink.com 1.10,2013-04-14 00:43:00,
2013-04-13 19:58:00,61.5,40.0,29.59,WSW,238,5.0,12.0,45,0.00,,,0.42,weatherlink.com 1.10,2013-04-14 00:58:00,
2013-04-13 20:13:00,60.4,40.0,29.59,West,259,12.0,15.0,48,0.00,,,0.42,weatherlink.com 1.10,2013-04-14 01:13:00,
2013-04-13 20:28:00,59.4,41.0,29.58,West,261,1.0,7.0,51,0.00,,,0.42,weatherlink.com 1.10,2013-04-14 01:28:00,
2013-04-13 20:43:00,58.9,41.0,29.58,WSW,252,2.0,5.0,51,0.00,,,0.42,weatherlink.com 1.10,2013-04-14 01:43:00,
2013-04-13 20:58:00,58.2,40.0,29.59,SSW,194,2.0,10.0,52,0.00,,,0.42,weatherlink.com 1.10,2013-04-14 01:58:00,
2013-04-13 21:13:00,58.2,40.0,29.59,SSW,194,1.0,3.0,51,0.00,,,0.42,weatherlink.com 1.10,2013-04-14 02:13:00,
2013-04-13 21:28:00,57.8,41.0,29.60,SSW,194,0.0,2.0,53,0.00,,,0.42,weatherlink.com 1.10,2013-04-14 02:28:00,
2013-04-13 21:43:00,58.2,39.0,29.61,SSW,194,0.0,3.0,50,0.00,,,0.42,weatherlink.com 1.10,2013-04-14 02:43:00,
2013-04-13 21:58:00,57.1,40.0,29.61,SSW,194,1.0,2.0,54,0.00,,,0.42,weatherlink.com 1.10,2013-04-14 02:58:00,
2013-04-13 22:13:00,57.5,39.0,29.61,SSW,194,0.0,3.0,51,0.00,,,0.42,weatherlink.com 1.10,2013-04-14 03:13:00,
2013-04-13 22:28:00,57.7,39.0,29.62,SSW,194,0.0,1.0,50,0.00,,,0.42,weatherlink.com 1.10,2013-04-14 03:28:00,
2013-04-13 22:43:00,56.8,38.0,29.62,SSW,194,0.0,1.0,50,0.00,,,0.42,weatherlink.com 1.10,2013-04-14 03:43:00,
2013-04-13 22:58:00,57.3,39.0,29.62,SSW,194,0.0,2.0,50,0.00,,,0.42,weatherlink.com 1.10,2013-04-14 03:58:00,
2013-04-13 23:13:00,57.5,38.0,29.62,SSW,194,1.0,3.0,48,0.00,,,0.42,weatherlink.com 1.10,2013-04-14 04:13:00,
2013-04-13 23:28:00,56.7,38.0,29.62,SSW,194,0.0,1.0,49,0.00,,,0.42,weatherlink.com 1.10,2013-04-14 04:28:00,
2013-04-13 23:43:00,57.5,38.0,29.62,SSW,194,0.0,3.0,48,0.00,,,0.42,weatherlink.com 1.10,2013-04-14 04:43:00,
2013-04-13 23:59:00,57.7,37.0,29.62,SSW,194,1.0,5.0,47,0.00,,,0.42,weatherlink.com 1.10,2013-04-14 04:59:00,